createdAt,value
2023-03-29T00:04:04.908Z,2.42
2023-03-29T00:09:06.889Z,2.30
2023-03-29T00:14:08.378Z,2.45
2023-03-29T00:19:10.000Z,2.00
2023-03-29T00:24:11.464Z,2.30
2023-03-29T00:29:12.875Z,2.50
2023-03-29T00:34:14.256Z,2.58
2023-03-29T00:39:15.735Z,2.33
2023-03-29T00:44:36.570Z,3.38
2023-03-29T00:49:38.040Z,2.33
2023-03-29T00:54:41.179Z,2.20
2023-03-29T00:59:43.333Z,2.47
2023-03-29T01:04:55.197Z,2.10
2023-03-29T01:10:03.993Z,2.67
2023-03-29T01:15:12.513Z,2.67
2023-03-29T01:20:17.562Z,2.60
2023-03-29T01:25:26.256Z,2.65
2023-03-29T01:30:32.161Z,2.50
2023-03-29T01:35:40.050Z,2.63
2023-03-29T01:40:41.930Z,2.20
2023-03-29T01:45:50.064Z,2.72
2023-03-29T01:50:54.154Z,2.78
2023-03-29T01:55:57.063Z,2.85
2023-03-29T02:01:00.004Z,2.83
2023-03-29T02:06:02.256Z,2.63
2023-03-29T02:11:04.658Z,2.53
2023-03-29T02:16:13.717Z,2.90
2023-03-29T02:21:26.132Z,2.73
2023-03-29T02:26:29.025Z,2.80
2023-03-29T02:31:49.105Z,3.03
2023-03-29T02:36:52.376Z,3.00
2023-03-29T02:41:54.386Z,3.30
2023-03-29T02:47:02.159Z,3.10
2023-03-29T02:52:08.884Z,3.25
2023-03-29T02:57:10.885Z,3.30
2023-03-29T03:02:13.789Z,3.72
2023-03-29T03:07:15.272Z,3.33
2023-03-29T03:12:16.942Z,3.55
2023-03-29T03:17:18.957Z,3.88
2023-03-29T03:22:20.349Z,3.60
2023-03-29T03:27:21.777Z,3.60
2023-03-29T03:32:23.911Z,4.00
2023-03-29T03:37:25.326Z,3.30
2023-03-29T03:42:29.700Z,3.85
2023-03-29T03:47:31.142Z,4.20
2023-03-29T03:52:32.556Z,4.05
2023-03-29T03:57:37.440Z,3.75
2023-03-29T04:02:39.017Z,4.28
2023-03-29T04:07:41.281Z,4.38
2023-03-29T04:12:42.708Z,4.40
2023-03-29T04:17:44.221Z,4.28
2023-03-29T04:22:45.779Z,3.88
2023-03-29T04:27:47.250Z,4.25
2023-03-29T04:32:48.893Z,4.78
2023-03-29T04:37:51.540Z,4.10
2023-03-29T04:42:53.557Z,4.38
2023-03-29T04:47:59.770Z,4.82
2023-03-29T04:53:01.659Z,4.72
2023-03-29T04:58:03.062Z,4.60
2023-03-29T05:03:04.684Z,4.65
2023-03-29T05:08:06.225Z,4.63
2023-03-29T05:13:07.686Z,4.25
2023-03-29T05:18:09.687Z,4.53
2023-03-29T05:23:12.566Z,4.70
2023-03-29T05:28:14.426Z,4.32
2023-03-29T05:33:16.467Z,4.50
2023-03-29T05:38:17.941Z,5.18
2023-03-29T05:43:19.375Z,4.97
2023-03-29T05:48:22.372Z,4.70
2023-03-29T05:53:24.864Z,5.15
2023-03-29T05:58:26.581Z,5.65
2023-03-29T06:03:28.384Z,5.18
2023-03-29T06:08:31.059Z,5.30
2023-03-29T06:13:34.065Z,5.03
2023-03-29T06:18:36.130Z,4.57
2023-03-29T06:23:37.703Z,4.35
2023-03-29T06:28:39.278Z,4.60
2023-03-29T06:33:43.193Z,4.85
2023-03-29T06:38:47.747Z,4.88
2023-03-29T06:43:49.211Z,4.65
2023-03-29T06:48:51.289Z,4.93
2023-03-29T06:53:52.678Z,4.97
2023-03-29T06:58:54.107Z,4.82
2023-03-29T07:03:56.894Z,5.20
2023-03-29T07:09:00.615Z,5.20
2023-03-29T07:14:03.229Z,4.88
2023-03-29T07:19:04.800Z,5.05
2023-03-29T07:24:06.997Z,4.75
2023-03-29T07:29:09.366Z,4.80
2023-03-29T07:34:13.835Z,5.22
2023-03-29T07:39:15.682Z,5.30
2023-03-29T07:44:19.269Z,5.32
2023-03-29T07:49:22.442Z,5.15
2023-03-29T07:54:23.934Z,5.28
2023-03-29T07:59:25.324Z,5.68
2023-03-29T08:04:26.943Z,5.78
2023-03-29T08:09:28.553Z,5.20
2023-03-29T08:14:30.294Z,5.80
2023-03-29T08:19:32.247Z,5.60
2023-03-29T08:24:33.728Z,5.47
2023-03-29T08:29:35.385Z,6.20
2023-03-29T08:34:38.610Z,5.57
2023-03-29T08:39:39.996Z,5.45
2023-03-29T08:44:50.822Z,6.05
2023-03-29T08:49:54.357Z,6.00
2023-03-29T08:54:56.940Z,6.07
2023-03-29T09:00:00.040Z,7.15
2023-03-29T09:05:22.597Z,6.70
2023-03-29T09:10:32.130Z,6.85
2023-03-29T09:15:43.023Z,7.78
2023-03-29T09:20:56.441Z,7.50
2023-03-29T09:26:02.173Z,9.10
2023-03-29T09:31:14.500Z,9.70
2023-03-29T09:36:24.715Z,9.63
2023-03-29T09:41:46.624Z,9.73
2023-03-29T09:46:58.454Z,9.13
2023-03-29T09:52:03.248Z,9.65
2023-03-29T09:57:04.761Z,10.30
2023-03-29T10:02:08.222Z,9.10
2023-03-29T10:07:18.193Z,8.98
2023-03-29T10:12:20.206Z,9.75
2023-03-29T10:17:23.196Z,8.48
2023-03-29T10:22:26.497Z,9.15
2023-03-29T10:27:28.953Z,7.97
2023-03-29T10:32:33.783Z,8.32
2023-03-29T10:37:35.261Z,9.85
2023-03-29T10:42:46.260Z,10.27
2023-03-29T10:47:48.596Z,9.90
2023-03-29T10:52:53.001Z,9.68
2023-03-29T10:58:20.746Z,11.18
2023-03-29T11:03:35.448Z,10.65
2023-03-29T11:08:37.051Z,12.45
2023-03-29T11:14:11.605Z,11.40
2023-03-29T11:19:13.034Z,11.27
2023-03-29T11:24:29.564Z,11.18
2023-03-29T11:29:35.676Z,10.93
2023-03-29T11:34:37.216Z,12.20
2023-03-29T11:39:57.306Z,10.88
2023-03-29T11:44:59.912Z,13.02
2023-03-29T11:50:07.725Z,11.20
2023-03-29T11:55:23.627Z,13.97
2023-03-29T12:00:27.802Z,12.93
2023-03-29T12:05:34.660Z,13.52
2023-03-29T12:10:37.778Z,13.45
2023-03-29T12:15:42.727Z,11.55
2023-03-29T12:20:46.529Z,13.18
2023-03-29T12:26:10.789Z,13.45
2023-03-29T12:31:23.040Z,12.52
2023-03-29T12:36:35.158Z,14.15
2023-03-29T12:41:37.464Z,17.48
2023-03-29T12:46:40.160Z,15.77
2023-03-29T12:51:42.621Z,15.30
2023-03-29T12:56:56.272Z,14.55
2023-03-29T13:02:22.338Z,14.48
2023-03-29T13:07:23.771Z,12.75
2023-03-29T13:12:32.933Z,13.00
2023-03-29T13:17:35.096Z,11.80
2023-03-29T13:22:45.862Z,10.50
2023-03-29T13:28:05.788Z,9.00
2023-03-29T13:38:08.818Z,9.00
2023-03-29T13:43:23.190Z,9.88
2023-03-29T13:48:28.761Z,10.45
2023-03-29T13:53:36.524Z,10.25
2023-03-29T13:58:37.898Z,10.15
2023-03-29T14:03:42.167Z,11.13
2023-03-29T14:08:44.680Z,10.38
2023-03-29T14:13:46.513Z,9.98
2023-03-29T14:18:51.262Z,10.05
2023-03-29T14:23:57.992Z,9.52
2023-03-29T14:29:01.223Z,10.20
2023-03-29T14:34:04.133Z,9.82
2023-03-29T14:39:08.231Z,9.60
2023-03-29T14:44:09.754Z,9.55
2023-03-29T14:49:14.499Z,10.38
2023-03-29T14:54:18.711Z,9.80
2023-03-29T14:59:36.938Z,11.43
2023-03-29T15:04:38.974Z,11.15
2023-03-29T15:09:40.746Z,10.98
2023-03-29T15:14:42.315Z,10.40
2023-03-29T15:19:43.701Z,9.65
2023-03-29T15:24:48.412Z,10.10
2023-03-29T15:29:49.969Z,9.88
2023-03-29T15:34:57.949Z,9.13
2023-03-29T15:39:59.737Z,10.10
2023-03-29T15:45:03.574Z,11.13
2023-03-29T15:50:05.179Z,10.43
2023-03-29T15:55:06.904Z,9.82
2023-03-29T16:00:13.120Z,9.82
2023-03-29T16:05:14.625Z,9.98
2023-03-29T16:10:16.136Z,9.48
2023-03-29T16:15:20.819Z,9.77
2023-03-29T16:20:22.245Z,10.18
2023-03-29T16:25:23.862Z,9.80
2023-03-29T16:30:25.315Z,9.48
2023-03-29T16:35:31.320Z,10.13
2023-03-29T16:40:33.364Z,9.10
2023-03-29T16:45:34.741Z,9.60
2023-03-29T16:50:36.683Z,10.93
2023-03-29T16:55:38.201Z,9.20
2023-03-29T17:00:40.965Z,9.25
2023-03-29T17:05:48.988Z,10.18
2023-03-29T17:10:54.042Z,10.10
2023-03-29T17:15:56.300Z,9.80
2023-03-29T17:20:58.871Z,10.52
2023-03-29T17:26:01.371Z,12.07
2023-03-29T17:31:04.207Z,12.13
2023-03-29T17:36:07.016Z,12.77
2023-03-29T17:41:08.980Z,13.13
2023-03-29T17:46:10.427Z,13.65
2023-03-29T17:51:11.877Z,16.17
2023-03-29T17:56:13.461Z,15.25
2023-03-29T18:01:15.937Z,14.00
2023-03-29T18:06:19.514Z,16.33
2023-03-29T18:11:22.973Z,14.20
2023-03-29T18:16:24.604Z,15.05
2023-03-29T18:21:27.364Z,15.30
2023-03-29T18:26:28.791Z,15.02
2023-03-29T18:31:30.602Z,14.27
2023-03-29T18:36:32.339Z,14.73
2023-03-29T18:41:34.366Z,14.80
2023-03-29T18:46:35.873Z,13.68
2023-03-29T18:51:37.680Z,12.55
2023-03-29T18:56:40.457Z,13.40
2023-03-29T19:01:41.918Z,12.13
2023-03-29T19:06:43.373Z,12.48
2023-03-29T19:11:47.889Z,10.68
2023-03-29T19:16:49.991Z,11.27
2023-03-29T19:21:54.569Z,9.98
2023-03-29T19:26:56.562Z,9.88
2023-03-29T19:31:58.054Z,9.18
2023-03-29T19:37:00.920Z,9.85
2023-03-29T19:42:02.464Z,9.60
2023-03-29T19:47:07.508Z,7.78
2023-03-29T19:52:10.576Z,8.30
2023-03-29T19:57:12.072Z,8.02
2023-03-29T20:02:14.076Z,8.52
2023-03-29T20:07:15.621Z,8.30
2023-03-29T20:12:16.996Z,7.35
2023-03-29T20:17:18.456Z,7.50
2023-03-29T20:22:19.889Z,7.95
2023-03-29T20:27:21.542Z,7.18
2023-03-29T20:32:23.077Z,8.30
2023-03-29T20:37:25.907Z,7.47
2023-03-29T20:42:28.725Z,7.63
2023-03-29T20:47:30.352Z,7.15
2023-03-29T20:52:31.956Z,7.07
2023-03-29T20:57:33.725Z,6.50
2023-03-29T21:02:35.235Z,6.50
2023-03-29T21:07:37.521Z,7.47
2023-03-29T21:12:40.168Z,6.25
2023-03-29T21:17:42.207Z,6.20
2023-03-29T21:22:43.636Z,6.65
2023-03-29T21:27:45.360Z,6.53
2023-03-29T21:32:46.984Z,7.05
2023-03-29T21:37:48.484Z,7.38
2023-03-29T21:42:49.854Z,6.88
2023-03-29T21:47:51.328Z,7.57
2023-03-29T21:52:52.811Z,6.88
2023-03-29T21:57:54.265Z,7.45
2023-03-29T22:02:57.143Z,6.65
2023-03-29T22:07:58.812Z,6.97
2023-03-29T22:13:00.571Z,6.72
2023-03-29T22:18:05.276Z,6.78
2023-03-29T22:23:08.153Z,7.00
2023-03-29T22:28:09.799Z,6.53
2023-03-29T22:33:11.187Z,6.57
2023-03-29T22:38:12.561Z,5.28
2023-03-29T22:43:14.061Z,5.40
2023-03-29T22:48:15.420Z,5.35
2023-03-29T22:53:16.912Z,5.90
2023-03-29T22:58:18.338Z,5.10
2023-03-29T23:03:19.811Z,4.80
2023-03-29T23:08:21.582Z,4.95
2023-03-29T23:13:29.424Z,4.50
2023-03-29T23:18:31.772Z,4.30
2023-03-29T23:23:33.558Z,5.03
2023-03-29T23:28:35.195Z,4.60
2023-03-29T23:33:38.499Z,5.00
2023-03-29T23:38:40.625Z,4.70
2023-03-29T23:43:43.262Z,4.53
2023-03-29T23:48:45.969Z,4.70
2023-03-29T23:53:48.541Z,5.07
2023-03-29T23:58:51.016Z,4.90
